Time;durP1;ratioP1;P1;durP2;ratioP2;P2;SDS_P1;SDS_P2;PMS_P1;PMS_P2;Temp;Humidity;BMP_temperature;BMP_pressure;BME280_temperature;BME280_humidity;BME280_pressure;Samples;Min_cycle;Max_cycle;Signal;HPM_P1;HPM_P2
2021/07/14 00:00:28;;;;;;;50.50;46.20;;;;;;;;;;5033512;28;20417;-86
2021/07/14 00:02:56;;;;;;;51.83;47.63;;;;;;;;;;5033618;28;20438;-85
2021/07/14 00:05:24;;;;;;;50.43;46.40;;;;;;;;;;5033637;28;20453;-86
2021/07/14 00:07:52;;;;;;;52.27;48.00;;;;;;;;;;5033649;28;20486;-85
2021/07/14 00:10:20;;;;;;;50.40;46.23;;;;;;;;;;5033669;28;20874;-86
2021/07/14 00:12:54;;;;;;;51.73;47.33;;;;;;;;;;5033437;28;20425;-86
2021/07/14 00:23:40;;;;;;;51.33;46.40;;;;;;;;;;5033578;28;20540;-86
2021/07/14 00:26:07;;;;;;;51.23;46.60;;;;;;;;;;5033035;28;20467;-85
2021/07/14 00:28:35;;;;;;;52.43;48.23;;;;;;;;;;5033332;28;20433;-85
2021/07/14 00:31:05;;;;;;;52.27;47.83;;;;;;;;;;5016337;28;20429;-86
2021/07/14 00:33:34;;;;;;;52.00;47.70;;;;;;;;;;5037074;28;20417;-85
2021/07/14 00:36:01;;;;;;;53.50;49.10;;;;;;;;;;5037147;28;20416;-85
2021/07/14 00:38:29;;;;;;;53.80;49.20;;;;;;;;;;5037125;28;20441;-85
2021/07/14 00:40:56;;;;;;;53.73;49.00;;;;;;;;;;5036743;28;20823;-85
2021/07/14 00:43:23;;;;;;;54.00;49.30;;;;;;;;;;5036717;28;20431;-85
2021/07/14 00:45:51;;;;;;;51.23;46.80;;;;;;;;;;5037196;28;20781;-85
2021/07/14 00:48:22;;;;;;;52.70;48.20;;;;;;;;;;5019279;28;20464;-85
2021/07/14 00:50:52;;;;;;;52.10;47.83;;;;;;;;;;5036553;28;20416;-84
2021/07/14 00:53:20;;;;;;;53.23;48.43;;;;;;;;;;5036800;28;20428;-86
2021/07/14 00:55:48;;;;;;;51.90;47.40;;;;;;;;;;5036327;28;20446;-86
2021/07/14 00:58:15;;;;;;;53.43;48.83;;;;;;;;;;5037043;28;20413;-85
2021/07/14 01:00:43;;;;;;;51.60;47.20;;;;;;;;;;5036695;28;20408;-86
2021/07/14 01:03:11;;;;;;;52.43;48.10;;;;;;;;;;5036719;28;20740;-85
2021/07/14 01:05:42;;;;;;;51.07;46.77;;;;;;;;;;5036568;28;20432;-85
2021/07/14 01:08:15;;;;;;;50.37;46.17;;;;;;;;;;5036347;28;20500;-86
2021/07/14 01:10:44;;;;;;;51.27;46.77;;;;;;;;;;5036360;28;20438;-86
2021/07/14 01:13:15;;;;;;;50.83;46.17;;;;;;;;;;5036367;28;20407;-86
2021/07/14 01:15:45;;;;;;;50.73;46.43;;;;;;;;;;5036335;28;20442;-86
2021/07/14 01:18:17;;;;;;;54.63;50.13;;;;;;;;;;5036079;28;20412;-85
2021/07/14 01:20:50;;;;;;;53.30;48.97;;;;;;;;;;5036013;28;20470;-85
2021/07/14 01:23:25;;;;;;;56.67;52.00;;;;;;;;;;5036472;28;20424;-86
2021/07/14 01:26:01;;;;;;;54.30;49.93;;;;;;;;;;5036146;28;20436;-86
2021/07/14 01:28:30;;;;;;;54.33;49.93;;;;;;;;;;5018455;28;20516;-86
2021/07/14 01:30:58;;;;;;;54.43;50.10;;;;;;;;;;5036102;28;20417;-86
2021/07/14 01:33:32;;;;;;;56.20;51.50;;;;;;;;;;5018571;28;20413;-85
2021/07/14 01:36:01;;;;;;;54.30;50.00;;;;;;;;;;5035991;28;20417;-86
2021/07/14 01:38:29;;;;;;;52.57;48.37;;;;;;;;;;5035983;28;20441;-86
2021/07/14 01:40:57;;;;;;;52.33;48.17;;;;;;;;;;5035395;28;21035;-85
2021/07/14 01:43:24;;;;;;;51.83;47.47;;;;;;;;;;5035505;28;20423;-86
2021/07/14 01:45:56;;;;;;;52.73;48.53;;;;;;;;;;5035421;28;20417;-86
2021/07/14 01:48:24;;;;;;;54.43;50.17;;;;;;;;;;5035368;28;20487;-86
2021/07/14 01:50:52;;;;;;;56.93;52.33;;;;;;;;;;5035674;28;20422;-85
2021/07/14 01:53:20;;;;;;;55.57;50.83;;;;;;;;;;5018840;28;20532;-85
2021/07/14 01:55:48;;;;;;;52.00;47.90;;;;;;;;;;5017952;28;20505;-85
2021/07/14 01:58:17;;;;;;;49.50;45.80;;;;;;;;;;5035650;28;20455;-85
2021/07/14 02:00:45;;;;;;;50.60;46.80;;;;;;;;;;5035699;28;20425;-86
2021/07/14 02:03:40;;;;;;;52.73;48.40;;;;;;;;;;5035779;28;20424;-86
2021/07/14 02:06:08;;;;;;;45.90;42.50;;;;;;;;;;5035353;28;20470;-86
2021/07/14 02:08:37;;;;;;;54.50;49.93;;;;;;;;;;5035139;28;20483;-86
2021/07/14 02:11:05;;;;;;;53.50;49.17;;;;;;;;;;5034993;28;20439;-85
2021/07/14 02:13:33;;;;;;;51.40;47.33;;;;;;;;;;5035208;28;20417;-86
2021/07/14 02:16:01;;;;;;;49.23;45.43;;;;;;;;;;5035151;28;20458;-86
2021/07/14 02:18:32;;;;;;;54.13;49.47;;;;;;;;;;5035723;28;20517;-86
2021/07/14 02:20:59;;;;;;;55.07;50.37;;;;;;;;;;5034939;28;20417;-85
2021/07/14 02:23:27;;;;;;;55.67;51.20;;;;;;;;;;5035134;28;20413;-86
2021/07/14 02:25:54;;;;;;;57.90;52.70;;;;;;;;;;5034983;28;20429;-86
2021/07/14 02:28:21;;;;;;;55.97;51.13;;;;;;;;;;5035004;28;20459;-86
2021/07/14 02:30:49;;;;;;;57.37;52.23;;;;;;;;;;5034913;28;20420;-86
2021/07/14 02:33:16;;;;;;;57.30;52.37;;;;;;;;;;5034901;28;20463;-86
2021/07/14 02:35:47;;;;;;;57.20;52.00;;;;;;;;;;5035024;28;20416;-86
2021/07/14 02:38:16;;;;;;;58.90;53.77;;;;;;;;;;5034487;28;20485;-85
2021/07/14 02:40:47;;;;;;;56.90;52.00;;;;;;;;;;5034112;28;20959;-86
2021/07/14 02:43:14;;;;;;;58.70;53.80;;;;;;;;;;5034794;28;20427;-86
2021/07/14 02:45:43;;;;;;;60.40;55.30;;;;;;;;;;5034743;28;20421;-85
2021/07/14 02:48:10;;;;;;;57.77;52.67;;;;;;;;;;5034688;28;20489;-86
2021/07/14 02:50:38;;;;;;;57.53;52.20;;;;;;;;;;5034441;28;20425;-86
2021/07/14 02:53:09;;;;;;;59.93;54.70;;;;;;;;;;5034635;28;20428;-86
2021/07/14 02:55:38;;;;;;;57.83;52.93;;;;;;;;;;5034095;28;20932;-86
2021/07/14 02:58:06;;;;;;;59.57;54.17;;;;;;;;;;5034490;28;20421;-85
2021/07/14 03:00:33;;;;;;;58.70;53.50;;;;;;;;;;5034578;28;20429;-86
2021/07/14 03:03:01;;;;;;;58.73;53.53;;;;;;;;;;5034402;28;20771;-86
2021/07/14 03:05:29;;;;;;;61.10;55.77;;;;;;;;;;5034553;28;20435;-86
2021/07/14 03:07:58;;;;;;;60.27;54.70;;;;;;;;;;5034246;28;20464;-86
2021/07/14 03:10:28;;;;;;;60.87;55.33;;;;;;;;;;5034443;28;20416;-86
2021/07/14 03:12:59;;;;;;;61.87;56.07;;;;;;;;;;5034346;28;20442;-86
2021/07/14 03:15:27;;;;;;;63.57;57.37;;;;;;;;;;5034544;28;20421;-86
2021/07/14 03:17:55;;;;;;;63.93;57.90;;;;;;;;;;5033989;28;20470;-86
2021/07/14 03:20:23;;;;;;;63.00;57.07;;;;;;;;;;5033913;28;20418;-85
2021/07/14 03:22:51;;;;;;;65.07;58.83;;;;;;;;;;5033928;28;20481;-86
2021/07/14 03:25:19;;;;;;;64.57;58.07;;;;;;;;;;5034200;28;20445;-85
2021/07/14 03:27:49;;;;;;;62.20;56.17;;;;;;;;;;5034350;28;20464;-86
2021/07/14 03:30:16;;;;;;;66.20;59.30;;;;;;;;;;5033783;28;20428;-85
2021/07/14 03:32:44;;;;;;;64.93;58.53;;;;;;;;;;5033955;28;20459;-86
2021/07/14 03:35:14;;;;;;;64.87;58.77;;;;;;;;;;5034627;28;20428;-86
2021/07/14 03:37:42;;;;;;;67.27;60.47;;;;;;;;;;5033885;28;20392;-86
2021/07/14 03:40:11;;;;;;;68.10;61.07;;;;;;;;;;5033921;28;20439;-85
2021/07/14 03:42:39;;;;;;;65.53;58.93;;;;;;;;;;5034062;28;20413;-86
2021/07/14 03:45:09;;;;;;;66.83;60.20;;;;;;;;;;5034087;28;20433;-85
2021/07/14 03:47:37;;;;;;;67.07;60.47;;;;;;;;;;5016329;28;20444;-86
2021/07/14 03:50:05;;;;;;;62.87;56.73;;;;;;;;;;5033774;28;20414;-86
2021/07/14 03:52:33;;;;;;;64.17;57.83;;;;;;;;;;5034194;28;20436;-86
2021/07/14 03:55:02;;;;;;;67.10;60.20;;;;;;;;;;5033721;28;20435;-86
2021/07/14 03:57:30;;;;;;;68.40;61.37;;;;;;;;;;5034226;28;20942;-86
2021/07/14 03:59:57;;;;;;;68.37;61.63;;;;;;;;;;5033504;28;20421;-86
2021/07/14 04:02:26;;;;;;;70.63;63.23;;;;;;;;;;5034572;28;20912;-86
2021/07/14 04:04:53;;;;;;;69.50;62.30;;;;;;;;;;5033508;28;20466;-86
2021/07/14 04:07:24;;;;;;;65.30;58.73;;;;;;;;;;5036102;28;20438;-86
2021/07/14 04:09:51;;;;;;;65.90;58.97;;;;;;;;;;5037302;28;20421;-85
2021/07/14 04:12:19;;;;;;;70.50;63.20;;;;;;;;;;5037214;28;20416;-85
2021/07/14 04:14:47;;;;;;;62.47;56.37;;;;;;;;;;5037486;28;20408;-85
2021/07/14 04:17:14;;;;;;;67.10;60.53;;;;;;;;;;5037301;28;20442;-83
2021/07/14 04:19:43;;;;;;;67.30;60.53;;;;;;;;;;5036742;28;20916;-81
2021/07/14 04:22:11;;;;;;;64.70;58.50;;;;;;;;;;5036841;28;20445;-81
2021/07/14 04:24:39;;;;;;;62.10;56.20;;;;;;;;;;5036862;28;20416;-86
2021/07/14 04:27:07;;;;;;;67.13;60.43;;;;;;;;;;5037355;28;20545;-86
2021/07/14 04:29:34;;;;;;;66.70;60.20;;;;;;;;;;5037446;28;20417;-86
2021/07/14 04:32:01;;;;;;;67.73;60.93;;;;;;;;;;5036744;28;20429;-81
2021/07/14 04:34:29;;;;;;;66.63;59.97;;;;;;;;;;5036416;28;20409;-81
2021/07/14 04:36:58;;;;;;;66.43;59.80;;;;;;;;;;5036705;28;20441;-83
2021/07/14 04:39:25;;;;;;;66.10;59.60;;;;;;;;;;5037213;28;20427;-86
2021/07/14 04:41:53;;;;;;;70.47;62.90;;;;;;;;;;5019131;28;20478;-86
2021/07/14 04:44:31;;;;;;;66.33;59.47;;;;;;;;;;5036745;28;20421;-81
2021/07/14 04:46:58;;;;;;;64.93;58.63;;;;;;;;;;5036219;28;20450;-81
2021/07/14 04:49:26;;;;;;;73.00;65.20;;;;;;;;;;5018513;28;20471;-81
2021/07/14 04:51:53;;;;;;;69.33;61.93;;;;;;;;;;5036558;28;20751;-86
2021/07/14 04:54:22;;;;;;;75.30;62.77;;;;;;;;;;5036606;28;20446;-86
2021/07/14 04:56:51;;;;;;;69.70;59.73;;;;;;;;;;5036365;28;20446;-82
2021/07/14 04:59:18;;;;;;;69.70;61.10;;;;;;;;;;5036229;28;20428;-81
2021/07/14 05:01:46;;;;;;;68.43;61.03;;;;;;;;;;5035960;28;20417;-81
2021/07/14 05:04:13;;;;;;;80.83;63.87;;;;;;;;;;5036500;28;20422;-86
2021/07/14 05:06:41;;;;;;;75.20;61.90;;;;;;;;;;5036447;28;20420;-87
2021/07/14 05:09:08;;;;;;;79.77;63.60;;;;;;;;;;5036494;28;20461;-86
2021/07/14 05:11:37;;;;;;;74.70;65.10;;;;;;;;;;5035555;28;20417;-81
2021/07/14 05:14:05;;;;;;;79.40;66.83;;;;;;;;;;5035628;28;20438;-81
2021/07/14 05:16:32;;;;;;;66.70;59.47;;;;;;;;;;5035273;28;20425;-81
2021/07/14 05:19:02;;;;;;;71.30;61.60;;;;;;;;;;5035672;28;20413;-81
2021/07/14 05:21:30;;;;;;;70.73;61.77;;;;;;;;;;5036215;28;20568;-81
2021/07/14 05:23:57;;;;;;;71.40;61.00;;;;;;;;;;5036253;28;20428;-86
2021/07/14 05:26:25;;;;;;;87.60;63.43;;;;;;;;;;5035833;28;20424;-87
2021/07/14 05:28:54;;;;;;;82.53;64.17;;;;;;;;;;5035642;28;20493;-82
2021/07/14 05:31:21;;;;;;;92.20;66.00;;;;;;;;;;5035540;28;20428;-81
2021/07/14 05:33:49;;;;;;;179.50;74.67;;;;;;;;;;5035233;28;20409;-81
2021/07/14 05:36:17;;;;;;;174.67;88.80;;;;;;;;;;5035774;28;20781;-87
2021/07/14 05:38:44;;;;;;;125.47;83.83;;;;;;;;;;5035907;28;20408;-87
2021/07/14 05:41:12;;;;;;;98.43;83.33;;;;;;;;;;5035729;28;20492;-84
2021/07/14 05:43:40;;;;;;;115.87;86.37;;;;;;;;;;5035389;28;20413;-82
2021/07/14 05:46:09;;;;;;;118.00;87.90;;;;;;;;;;5035025;28;20954;-82
2021/07/14 05:48:36;;;;;;;152.57;93.67;;;;;;;;;;5035245;28;20449;-87
2021/07/14 05:51:04;;;;;;;176.50;97.97;;;;;;;;;;5035806;28;20416;-87
2021/07/14 05:53:31;;;;;;;168.60;96.40;;;;;;;;;;5036017;28;20416;-87
2021/07/14 05:55:58;;;;;;;137.80;91.27;;;;;;;;;;5035238;28;20416;-82
2021/07/14 05:58:26;;;;;;;140.23;94.67;;;;;;;;;;5034770;28;20441;-82
2021/07/14 06:00:53;;;;;;;245.87;106.53;;;;;;;;;;5034877;28;20411;-82
2021/07/14 06:03:22;;;;;;;136.40;98.47;;;;;;;;;;5035096;28;20937;-81
2021/07/14 06:05:50;;;;;;;142.47;97.67;;;;;;;;;;5034847;28;20408;-81
2021/07/14 06:08:17;;;;;;;182.93;101.17;;;;;;;;;;5034496;28;20787;-81
2021/07/14 06:10:44;;;;;;;132.33;95.03;;;;;;;;;;5016993;28;20502;-81
2021/07/14 06:13:12;;;;;;;168.40;101.30;;;;;;;;;;5034780;28;20442;-81
2021/07/14 06:15:39;;;;;;;209.23;106.73;;;;;;;;;;5017052;28;20511;-81
2021/07/14 06:18:07;;;;;;;227.70;109.93;;;;;;;;;;5034687;28;20774;-81
2021/07/14 06:20:36;;;;;;;178.17;102.77;;;;;;;;;;5034622;28;20413;-81
2021/07/14 06:23:03;;;;;;;231.17;104.17;;;;;;;;;;5034594;28;20427;-81
2021/07/14 06:25:31;;;;;;;170.70;96.80;;;;;;;;;;5034165;28;21146;-81
2021/07/14 06:28:00;;;;;;;172.50;100.50;;;;;;;;;;5034449;28;20438;-81
2021/07/14 06:30:28;;;;;;;168.43;97.40;;;;;;;;;;5033876;28;20493;-81
2021/07/14 06:32:55;;;;;;;147.30;92.67;;;;;;;;;;5034442;28;20487;-81
2021/07/14 06:35:23;;;;;;;147.13;93.73;;;;;;;;;;5034495;28;20419;-80
2021/07/14 06:37:52;;;;;;;197.30;98.80;;;;;;;;;;5034081;28;20499;-81
2021/07/14 06:40:20;;;;;;;191.63;99.00;;;;;;;;;;5033857;28;20467;-82
2021/07/14 06:42:48;;;;;;;90.30;78.83;;;;;;;;;;5034418;28;20400;-81
2021/07/14 06:45:16;;;;;;;139.87;89.77;;;;;;;;;;5034520;28;20419;-82
2021/07/14 06:47:43;;;;;;;124.93;84.67;;;;;;;;;;5034220;28;20430;-81
2021/07/14 06:50:12;;;;;;;82.50;73.80;;;;;;;;;;5034168;28;20485;-81
2021/07/14 06:52:39;;;;;;;77.23;68.90;;;;;;;;;;5033844;28;20417;-81
2021/07/14 06:55:09;;;;;;;76.20;68.43;;;;;;;;;;5016184;28;20432;-81
2021/07/14 06:57:37;;;;;;;82.87;72.70;;;;;;;;;;5034051;28;20423;-81
2021/07/14 07:00:06;;;;;;;77.27;69.17;;;;;;;;;;5034013;28;20420;-81
2021/07/14 07:02:34;;;;;;;87.40;72.47;;;;;;;;;;5034228;28;20445;-80
2021/07/14 07:05:01;;;;;;;71.23;64.13;;;;;;;;;;5034016;28;20442;-81
2021/07/14 07:07:28;;;;;;;74.10;67.00;;;;;;;;;;5034240;28;20419;-81
2021/07/14 07:09:56;;;;;;;73.67;66.30;;;;;;;;;;5033432;28;20467;-81
2021/07/14 07:12:24;;;;;;;69.20;62.60;;;;;;;;;;5033587;28;20441;-81
2021/07/14 07:14:52;;;;;;;74.93;67.40;;;;;;;;;;5033568;28;20750;-81
2021/07/14 07:17:19;;;;;;;75.50;67.60;;;;;;;;;;5033891;28;20442;-80
2021/07/14 07:19:46;;;;;;;75.93;67.80;;;;;;;;;;5033527;28;20437;-81
2021/07/14 07:22:14;;;;;;;72.50;65.00;;;;;;;;;;5033792;28;20475;-83
2021/07/14 07:24:42;;;;;;;76.27;68.60;;;;;;;;;;5015958;28;20469;-83
2021/07/14 07:27:09;;;;;;;71.23;64.23;;;;;;;;;;5033651;28;20423;-80
2021/07/14 07:29:38;;;;;;;76.20;68.47;;;;;;;;;;5033602;28;20456;-80
2021/07/14 07:32:06;;;;;;;78.87;69.67;;;;;;;;;;5033982;28;20442;-80
2021/07/14 07:34:34;;;;;;;72.47;65.73;;;;;;;;;;5033436;28;20423;-81
2021/07/14 07:37:03;;;;;;;74.20;66.77;;;;;;;;;;5033361;28;20425;-81
2021/07/14 07:39:30;;;;;;;71.80;64.80;;;;;;;;;;5033755;28;20527;-81
2021/07/14 07:42:01;;;;;;;70.83;63.90;;;;;;;;;;5037142;28;20878;-79
2021/07/14 07:44:29;;;;;;;73.50;65.70;;;;;;;;;;5037499;28;20937;-81
2021/07/14 07:46:57;;;;;;;69.27;62.40;;;;;;;;;;5037808;28;20448;-81
2021/07/14 07:49:25;;;;;;;62.47;56.97;;;;;;;;;;5037213;28;20494;-81
2021/07/14 07:51:52;;;;;;;69.57;63.47;;;;;;;;;;5037245;28;20412;-81
2021/07/14 07:54:20;;;;;;;65.30;59.40;;;;;;;;;;5037532;28;20846;-81
2021/07/14 07:56:47;;;;;;;63.50;57.30;;;;;;;;;;5036961;28;20449;-81
2021/07/14 07:59:14;;;;;;;69.47;63.37;;;;;;;;;;5037360;28;20438;-81
2021/07/14 08:01:42;;;;;;;68.37;61.60;;;;;;;;;;5037163;28;20446;-81
2021/07/14 08:04:10;;;;;;;69.80;62.60;;;;;;;;;;5037006;28;20416;-81
2021/07/14 08:06:38;;;;;;;68.90;62.40;;;;;;;;;;5036934;28;20428;-81
2021/07/14 08:09:06;;;;;;;70.47;63.57;;;;;;;;;;5037216;28;20490;-82
2021/07/14 08:11:33;;;;;;;72.03;64.57;;;;;;;;;;5037200;28;20424;-81
2021/07/14 08:14:00;;;;;;;78.33;70.23;;;;;;;;;;5036756;28;20432;-81
2021/07/14 08:16:28;;;;;;;72.33;64.90;;;;;;;;;;5037102;28;20416;-81
2021/07/14 08:18:56;;;;;;;75.73;67.67;;;;;;;;;;5036893;28;20415;-79
2021/07/14 08:21:25;;;;;;;74.63;66.63;;;;;;;;;;5038265;28;20476;-95
2021/07/14 08:23:53;;;;;;;74.47;66.60;;;;;;;;;;5037521;28;20424;-85
2021/07/14 08:26:20;;;;;;;75.90;67.83;;;;;;;;;;5019393;28;20430;-86
2021/07/14 08:28:47;;;;;;;72.80;65.17;;;;;;;;;;5037062;28;20477;-86
2021/07/14 08:31:15;;;;;;;74.50;66.80;;;;;;;;;;5037365;28;20415;-85
2021/07/14 08:33:42;;;;;;;76.07;68.23;;;;;;;;;;5037306;28;20414;-86
2021/07/14 08:36:09;;;;;;;74.17;66.80;;;;;;;;;;5036957;28;20919;-86
2021/07/14 08:38:38;;;;;;;72.60;64.90;;;;;;;;;;5036932;28;20436;-85
2021/07/14 08:41:08;;;;;;;80.13;71.53;;;;;;;;;;5037614;28;20969;-87
2021/07/14 08:43:36;;;;;;;78.47;70.20;;;;;;;;;;5036667;28;20413;-88
2021/07/14 08:46:03;;;;;;;77.03;69.23;;;;;;;;;;5036941;28;20447;-90
2021/07/14 08:48:31;;;;;;;71.33;63.67;;;;;;;;;;5036469;28;20413;-79
2021/07/14 08:50:59;;;;;;;76.80;68.60;;;;;;;;;;5036253;28;20442;-84
2021/07/14 08:53:26;;;;;;;73.33;65.53;;;;;;;;;;5035877;28;20468;-87
2021/07/14 08:55:56;;;;;;;72.40;64.90;;;;;;;;;;5036236;28;20435;-85
2021/07/14 08:58:24;;;;;;;76.80;68.60;;;;;;;;;;5036398;28;20428;-91
2021/07/14 09:00:53;;;;;;;70.63;62.63;;;;;;;;;;5041956;28;20441;-92
2021/07/14 09:03:21;;;;;;;69.40;62.20;;;;;;;;;;5037812;28;20445;-96
2021/07/14 09:05:48;;;;;;;71.17;62.33;;;;;;;;;;5039254;23;20501;-93
2021/07/14 09:08:16;;;;;;;67.03;60.20;;;;;;;;;;5049413;22;20525;-96
2021/07/14 09:10:45;;;;;;;70.10;62.70;;;;;;;;;;5036710;28;20464;-91
2021/07/14 09:13:19;;;;;;;75.17;66.37;;;;;;;;;;5051408;28;20452;-96
2021/07/14 09:15:49;;;;;;;75.70;66.10;;;;;;;;;;5043810;28;20445;-96
2021/07/14 09:18:21;;;;;;;71.77;63.40;;;;;;;;;;5037463;28;20540;-92
2021/07/14 09:20:48;;;;;;;72.60;64.60;;;;;;;;;;5037689;28;20535;-92
2021/07/14 09:23:17;;;;;;;73.90;65.90;;;;;;;;;;5019361;28;20469;-95
2021/07/14 09:25:45;;;;;;;77.17;64.10;;;;;;;;;;5045726;28;20450;-92
2021/07/14 09:28:15;;;;;;;67.90;60.50;;;;;;;;;;5036696;28;20453;-94
2021/07/14 09:30:43;;;;;;;71.77;63.33;;;;;;;;;;5044156;28;20481;-96
2021/07/14 09:33:11;;;;;;;72.87;63.83;;;;;;;;;;5020283;28;20420;-85
2021/07/14 09:35:41;;;;;;;74.70;64.20;;;;;;;;;;5036427;28;20445;-90
2021/07/14 09:38:10;;;;;;;70.43;63.00;;;;;;;;;;5036950;28;20490;-82
2021/07/14 09:40:37;;;;;;;68.33;61.07;;;;;;;;;;5035329;28;20439;-82
2021/07/14 09:43:09;;;;;;;68.97;61.27;;;;;;;;;;5035691;28;20412;-83
2021/07/14 09:45:39;;;;;;;66.93;60.00;;;;;;;;;;5035484;28;20431;-83
2021/07/14 09:48:07;;;;;;;65.67;58.67;;;;;;;;;;5035547;28;20475;-85
2021/07/14 09:50:34;;;;;;;63.50;57.40;;;;;;;;;;5034978;28;20966;-83
2021/07/14 09:53:03;;;;;;;64.93;58.07;;;;;;;;;;5035206;28;20433;-83
2021/07/14 09:55:31;;;;;;;65.73;59.10;;;;;;;;;;5034251;28;20421;-83
2021/07/14 09:58:08;;;;;;;66.17;59.37;;;;;;;;;;5034713;28;20442;-83
2021/07/14 10:00:50;;;;;;;66.47;59.50;;;;;;;;;;5034765;28;20418;-83
2021/07/14 10:03:24;;;;;;;63.57;57.37;;;;;;;;;;5034012;28;20486;-83
2021/07/14 10:05:52;;;;;;;64.17;57.37;;;;;;;;;;5035119;28;20411;-83
2021/07/14 10:08:23;;;;;;;63.90;57.63;;;;;;;;;;5034957;28;20412;-83
2021/07/14 10:10:51;;;;;;;62.70;56.50;;;;;;;;;;5034624;28;20479;-83
2021/07/14 10:13:21;;;;;;;62.47;56.37;;;;;;;;;;5034755;28;20458;-83
2021/07/14 10:16:02;;;;;;;64.10;57.90;;;;;;;;;;5034596;28;20489;-83
2021/07/14 10:18:31;;;;;;;63.30;56.87;;;;;;;;;;5034715;28;20496;-83
2021/07/14 10:20:58;;;;;;;61.27;55.67;;;;;;;;;;5034668;28;20854;-83
2021/07/14 10:23:26;;;;;;;61.30;55.40;;;;;;;;;;5035475;28;20432;-87
2021/07/14 10:25:54;;;;;;;63.10;56.80;;;;;;;;;;5035631;28;20914;-87
2021/07/14 10:28:24;;;;;;;61.93;55.90;;;;;;;;;;5034837;28;20526;-83
2021/07/14 10:30:55;;;;;;;57.93;52.53;;;;;;;;;;5034546;28;20962;-84
2021/07/14 10:33:22;;;;;;;59.97;54.17;;;;;;;;;;5034564;28;20413;-84
2021/07/14 10:35:52;;;;;;;58.73;53.10;;;;;;;;;;5017328;28;20450;-84
2021/07/14 10:38:21;;;;;;;61.50;55.30;;;;;;;;;;5034568;28;20421;-84
2021/07/14 10:40:49;;;;;;;58.87;53.43;;;;;;;;;;5034445;28;20421;-84
2021/07/14 10:43:18;;;;;;;60.60;54.97;;;;;;;;;;5034415;28;20437;-85
2021/07/14 10:45:47;;;;;;;60.57;54.47;;;;;;;;;;5034104;28;20438;-83
2021/07/14 10:48:17;;;;;;;61.67;55.83;;;;;;;;;;5034347;28;20939;-84
2021/07/14 10:50:46;;;;;;;63.27;56.83;;;;;;;;;;5033918;28;20473;-84
2021/07/14 10:53:14;;;;;;;61.30;55.60;;;;;;;;;;5034233;28;20497;-86
2021/07/14 10:55:42;;;;;;;61.90;56.30;;;;;;;;;;5033899;28;20440;-82
2021/07/14 10:58:11;;;;;;;60.17;54.30;;;;;;;;;;5033690;28;20485;-81
2021/07/14 11:00:39;;;;;;;60.57;54.97;;;;;;;;;;5034076;28;20753;-81
2021/07/14 11:03:07;;;;;;;62.13;56.37;;;;;;;;;;5033954;28;20439;-82
2021/07/14 11:05:36;;;;;;;61.63;55.67;;;;;;;;;;5034063;28;20449;-85
2021/07/14 11:08:04;;;;;;;60.43;54.73;;;;;;;;;;5033880;28;20413;-81
2021/07/14 11:10:34;;;;;;;60.30;54.73;;;;;;;;;;5033586;28;20513;-81
2021/07/14 11:13:02;;;;;;;61.00;55.53;;;;;;;;;;5034085;28;20421;-82
2021/07/14 11:15:33;;;;;;;60.17;54.83;;;;;;;;;;5033233;28;20437;-83
2021/07/14 11:18:01;;;;;;;60.80;55.63;;;;;;;;;;5033809;28;20450;-77
2021/07/14 11:20:42;;;;;;;62.47;56.57;;;;;;;;;;5033498;28;21017;-77
2021/07/14 11:23:19;;;;;;;58.10;52.90;;;;;;;;;;5033955;28;20439;-77
2021/07/14 11:25:51;;;;;;;59.27;54.00;;;;;;;;;;5033619;28;20416;-77
2021/07/14 11:28:19;;;;;;;60.67;55.13;;;;;;;;;;5033543;28;20865;-77
2021/07/14 11:30:47;;;;;;;60.10;54.83;;;;;;;;;;5033611;28;20472;-86
2021/07/14 11:33:23;;;;;;;57.23;52.50;;;;;;;;;;5033998;28;20429;-85
2021/07/14 11:36:05;;;;;;;56.90;52.10;;;;;;;;;;5033918;28;20454;-83
2021/07/14 11:38:34;;;;;;;57.97;53.27;;;;;;;;;;5033531;28;20422;-83
2021/07/14 11:41:02;;;;;;;55.47;50.97;;;;;;;;;;5033591;28;20438;-84
2021/07/14 11:43:32;;;;;;;51.53;47.27;;;;;;;;;;5033590;28;20418;-84
2021/07/14 11:46:05;;;;;;;50.03;45.90;;;;;;;;;;5033378;28;20447;-84
2021/07/14 11:48:34;;;;;;;62.13;53.57;;;;;;;;;;5033759;28;20420;-84
2021/07/14 11:51:05;;;;;;;91.57;75.80;;;;;;;;;;5033410;28;20463;-88
2021/07/14 11:53:37;;;;;;;86.73;78.83;;;;;;;;;;5034375;28;20423;-89
2021/07/14 11:56:06;;;;;;;92.73;84.07;;;;;;;;;;5033850;28;20461;-89
2021/07/14 11:58:49;;;;;;;91.70;82.13;;;;;;;;;;5033767;28;20428;-86
2021/07/14 12:01:35;;;;;;;66.47;61.77;;;;;;;;;;5033677;28;20448;-86
2021/07/14 12:04:09;;;;;;;62.87;58.47;;;;;;;;;;5016275;28;20484;-87
2021/07/14 12:06:42;;;;;;;70.70;64.60;;;;;;;;;;5033725;28;20933;-87
2021/07/14 12:09:24;;;;;;;73.37;66.87;;;;;;;;;;5033374;28;20498;-87
2021/07/14 12:11:51;;;;;;;75.83;68.60;;;;;;;;;;5033614;28;20489;-87
2021/07/14 12:14:20;;;;;;;83.97;73.13;;;;;;;;;;5033836;28;20906;-87
2021/07/14 12:16:48;;;;;;;67.20;62.30;;;;;;;;;;5033690;28;20460;-86
2021/07/14 12:19:20;;;;;;;70.70;65.37;;;;;;;;;;5034250;28;20427;-87
2021/07/14 12:21:49;;;;;;;74.70;68.50;;;;;;;;;;5033837;28;20482;-87
2021/07/14 12:24:33;;;;;;;73.33;66.83;;;;;;;;;;5034698;28;20413;-91
2021/07/14 12:27:02;;;;;;;70.60;64.80;;;;;;;;;;5033989;28;20405;-84
2021/07/14 12:29:29;;;;;;;76.50;69.23;;;;;;;;;;5036925;28;20780;-81
2021/07/14 12:31:57;;;;;;;122.67;78.63;;;;;;;;;;5036587;28;20482;-84
2021/07/14 12:34:25;;;;;;;79.40;71.43;;;;;;;;;;5020806;28;20452;-81
2021/07/14 12:36:55;;;;;;;81.30;72.97;;;;;;;;;;5036974;28;20438;-85
2021/07/14 12:39:23;;;;;;;78.50;69.83;;;;;;;;;;5036872;28;20961;-91
2021/07/14 12:41:52;;;;;;;111.57;83.80;;;;;;;;;;5020975;28;20447;-82
2021/07/14 12:44:19;;;;;;;69.37;63.47;;;;;;;;;;5036751;28;20424;-80
2021/07/14 12:46:47;;;;;;;64.77;59.40;;;;;;;;;;5036729;28;20897;-88
2021/07/14 12:49:15;;;;;;;72.40;64.73;;;;;;;;;;5019273;28;20425;-86
2021/07/14 12:51:58;;;;;;;69.80;63.20;;;;;;;;;;5036663;28;20486;-91
2021/07/14 12:54:27;;;;;;;68.60;61.30;;;;;;;;;;5037385;28;20453;-93
2021/07/14 12:56:54;;;;;;;96.67;63.33;;;;;;;;;;5037476;28;20443;-91
2021/07/14 12:59:23;;;;;;;65.07;58.50;;;;;;;;;;5037055;28;20797;-90
2021/07/14 13:01:50;;;;;;;61.87;56.90;;;;;;;;;;5019087;28;20424;-91
2021/07/14 13:04:18;;;;;;;49.57;45.70;;;;;;;;;;5036815;28;20511;-90
2021/07/14 13:06:45;;;;;;;47.77;43.90;;;;;;;;;;5037016;28;20429;-89
2021/07/14 13:09:13;;;;;;;42.13;39.67;;;;;;;;;;5018884;28;20482;-90
2021/07/14 13:11:42;;;;;;;45.33;42.27;;;;;;;;;;5036925;28;20489;-90
2021/07/14 13:14:10;;;;;;;46.80;43.30;;;;;;;;;;5036697;28;20438;-84
2021/07/14 13:16:42;;;;;;;32.03;30.23;;;;;;;;;;5036485;28;20851;-91
2021/07/14 13:19:18;;;;;;;32.73;30.40;;;;;;;;;;5018500;28;20541;-85
2021/07/14 13:21:47;;;;;;;38.67;35.43;;;;;;;;;;5028206;28;20473;-85
2021/07/14 13:24:14;;;;;;;30.73;28.90;;;;;;;;;;4998988;28;20455;-91
2021/07/14 13:26:43;;;;;;;30.67;29.07;;;;;;;;;;5016433;28;20949;-85
2021/07/14 13:29:11;;;;;;;31.17;29.40;;;;;;;;;;5017738;28;20414;-94
2021/07/14 13:31:39;;;;;;;30.93;29.23;;;;;;;;;;5016804;28;20487;-92
2021/07/14 13:34:09;;;;;;;30.77;28.90;;;;;;;;;;5017164;28;20494;-87
2021/07/14 13:36:37;;;;;;;29.00;27.33;;;;;;;;;;4999350;28;20948;-84
2021/07/14 13:39:16;;;;;;;32.07;30.27;;;;;;;;;;5016234;28;20442;-89
2021/07/14 13:41:45;;;;;;;34.73;32.63;;;;;;;;;;5016417;28;20435;-90
2021/07/14 13:44:13;;;;;;;32.53;30.60;;;;;;;;;;5016405;28;20751;-91
2021/07/14 13:46:45;;;;;;;32.07;30.27;;;;;;;;;;5016335;28;20998;-87
2021/07/14 13:49:22;;;;;;;31.10;29.50;;;;;;;;;;5016131;28;20405;-85
2021/07/14 13:51:56;;;;;;;33.43;31.83;;;;;;;;;;4998621;28;20551;-86
2021/07/14 13:54:30;;;;;;;37.43;35.73;;;;;;;;;;5015846;28;20454;-86
2021/07/14 13:57:13;;;;;;;35.90;34.20;;;;;;;;;;5015670;28;20412;-86
2021/07/14 13:59:49;;;;;;;33.67;32.10;;;;;;;;;;5015981;28;20748;-86
2021/07/14 14:02:19;;;;;;;38.73;36.83;;;;;;;;;;5014425;28;20442;-81
2021/07/14 14:04:51;;;;;;;38.40;36.70;;;;;;;;;;5015200;28;20417;-84
2021/07/14 14:07:23;;;;;;;37.57;35.87;;;;;;;;;;5015632;28;20463;-87
2021/07/14 14:09:50;;;;;;;40.73;38.83;;;;;;;;;;5015083;28;20499;-86
2021/07/14 14:12:19;;;;;;;40.63;38.73;;;;;;;;;;5016191;28;20462;-86
2021/07/14 14:14:48;;;;;;;41.93;40.10;;;;;;;;;;5015695;28;20488;-86
2021/07/14 14:17:15;;;;;;;42.47;40.47;;;;;;;;;;5015630;28;20442;-86
2021/07/14 14:19:43;;;;;;;38.70;36.80;;;;;;;;;;4997782;28;20453;-86
2021/07/14 14:22:12;;;;;;;39.10;37.30;;;;;;;;;;5015511;28;20494;-87
2021/07/14 14:24:39;;;;;;;40.70;38.70;;;;;;;;;;4998009;28;20775;-87
2021/07/14 14:27:09;;;;;;;40.73;38.93;;;;;;;;;;5015245;28;20481;-86
2021/07/14 14:29:41;;;;;;;36.47;34.67;;;;;;;;;;5015072;28;20468;-87
2021/07/14 14:32:11;;;;;;;37.97;36.17;;;;;;;;;;5014859;28;20819;-86
2021/07/14 14:34:38;;;;;;;37.87;36.07;;;;;;;;;;5015327;28;20485;-86